EREK1: Neosho River near Erie

                                SHEF ID:       EREK1     NEOSHO R NR ERIE, KS
STATION TYPE:

PRECIP STAGE RIV-FLOW BAT-LOAD
in ft cfs volt
Ccp-Rev Ccp-Rev Ccp-Rev Ccp-Rev
(America/Chicago)
03/05 00:00 ---- 14.37 3590 12.37
03/05 01:00 ---- 14.37 3590 12.34
03/05 02:00 ---- 14.38 3610 12.34
03/05 03:00 ---- 14.37 3590 12.31
03/05 04:00 ---- 14.37 3590 12.29
03/05 05:00 ---- 14.37 3590 12.27
03/05 06:00 ---- 14.37 3590 12.25
03/05 07:00 ---- 14.39 3620 12.25
03/05 08:00 ---- 14.37 3590 12.24
03/05 09:00 ---- 14.39 3620 12.37
03/05 10:00 ---- 14.34 3550 12.99
03/05 11:00 ---- 14.38 3610 13.22
03/05 12:00 ---- 14.31 3510 13.45
03/05 13:00 ---- 14.33 3540 13.61
03/05 14:00 ---- 14.37 3590 13.47
03/05 15:00 ---- 14.38 3610 13.33
03/05 16:00 ---- 14.44 3690 13.28
03/05 17:00 ---- 14.46 3720 13.28
03/05 18:00 ---- 14.48 3750 13.11
03/05 19:00 ---- 14.49 3770 12.60
03/05 20:00 ---- 14.50 3780 12.50
03/05 21:00 ---- 14.50 3780 12.47
03/05 22:00 ---- 14.52 3810 12.44
03/05 23:00 ---- 14.52 3810 12.42
Data processed at Fri 06Mar2026 05:23 GMT

NOTICE: If you are parsing this page

Please convert to using our Data API. Starting early 2026 we will be migrating to: https://water.usace.army.mil with modern pages rendered in JavaScript. When this migration completes you will no longer be able to scrape this page! CWMSDataAPI (CDA)

Timeseries IDs (TSIDs)

TSIDs used from left to right in the data table
ERIE.Precip-Inc.Total.1Hour.1Hour.Ccp-Rev
ERIE.Stage.Inst.1Hour.0.Ccp-Rev
ERIE.Flow.Inst.1Hour.0.Ccp-Rev
ERIE.Volt-Battery Load.Inst.1Hour.0.Ccp-Rev

                            

All information presented herein is the property of the government of the United States of America and may be revised or deleted at any time without prior notice. Dissemination of this information without the expressed written consent of the Public Affairs Office, Tulsa District U.S. Army Corps of Engineers is strictly prohibited. These data are gathered electronically and, as presented, have NOT undergone any form of quality control. These data are NOT guaranteed to be valid or correct.